Time;durP1;ratioP1;P1;durP2;ratioP2;P2;SDS_P1;SDS_P2;PMS_P1;PMS_P2;Temp;Humidity;BMP_temperature;BMP_pressure;BME280_temperature;BME280_humidity;BME280_pressure;Samples;Min_cycle;Max_cycle;Signal;HPM_P1;HPM_P2
2022/01/15 00:00:50;;;;;;;1.20;0.60;;;-2.40;1.40;;;-1.85;100.00;96615.04;645138;212;31778;-74
2022/01/15 00:03:38;;;;;;;0.50;0.50;;;-2.40;1.40;;;-1.84;100.00;96609.78;647009;216;31534;-77
2022/01/15 00:06:20;;;;;;;0.80;0.70;;;-2.40;1.40;;;-1.84;100.00;96609.11;612986;226;31980;-78
2022/01/15 00:09:07;;;;;;;1.30;0.90;;;-2.30;1.40;;;-1.85;100.00;96606.14;646151;212;31501;-74
2022/01/15 00:11:49;;;;;;;2.30;1.52;;;-2.40;1.40;;;-1.91;100.00;96601.56;646384;216;31463;-77
2022/01/15 00:14:41;;;;;;;2.25;1.50;;;-2.40;1.40;;;-1.91;100.00;96606.92;647368;216;31548;-78
2022/01/15 00:17:46;;;;;;;0.62;0.62;;;-2.40;1.40;;;-1.96;100.00;96605.16;645270;216;31536;-77
2022/01/15 00:20:20;;;;;;;0.90;0.90;;;-2.50;1.40;;;-2.04;100.00;96604.11;648563;212;31536;-77
2022/01/15 00:23:04;;;;;;;0.40;0.40;;;-2.60;1.40;;;-2.07;100.00;96612.39;646518;212;31528;-74
2022/01/15 00:25:45;;;;;;;0.60;0.60;;;-2.70;1.40;;;-2.03;100.00;96605.96;631564;217;31715;-74
2022/01/15 00:28:33;;;;;;;2.10;1.30;;;-2.60;1.40;;;-2.03;100.00;96607.23;647146;216;31485;-77
2022/01/15 00:31:21;;;;;;;1.62;1.52;;;-2.70;1.40;;;-2.12;100.00;96607.11;640996;215;31598;-74
2022/01/15 00:35:51;;;;;;;1.02;1.00;;;-3.00;1.40;;;-2.19;100.00;96619.87;647942;216;31699;-77
2022/01/15 00:38:33;;;;;;;0.60;0.60;;;-3.00;1.40;;;-2.28;100.00;96605.05;646888;216;31500;-78
2022/01/15 00:41:21;;;;;;;1.40;0.70;;;-3.10;1.40;;;-2.33;100.00;96609.45;645752;216;31545;-75
2022/01/15 00:44:08;;;;;;;1.17;0.90;;;-3.10;1.40;;;-2.46;100.00;96607.58;647826;212;31484;-78
2022/01/15 00:46:53;;;;;;;0.93;0.40;;;-3.20;1.40;;;-2.55;100.00;96612.02;646843;216;32415;-78
2022/01/15 00:49:34;;;;;;;1.40;0.70;;;-3.40;1.40;;;-2.67;100.00;96618.81;648731;212;32423;-79
2022/01/15 00:52:16;;;;;;;0.73;0.73;;;-3.60;1.40;;;-2.64;100.00;96610.90;646939;216;31815;-77
2022/01/15 00:55:05;;;;;;;2.60;1.10;;;-3.70;1.40;;;-2.79;100.00;96607.59;642998;216;31871;-77
2022/01/15 00:57:47;;;;;;;1.00;0.90;;;-3.70;1.40;;;-2.83;100.00;96609.45;646827;216;31509;-74
2022/01/15 01:00:34;;;;;;;0.40;0.40;;;-3.60;1.40;;;-2.76;100.00;96608.53;646998;216;31489;-77
2022/01/15 01:03:22;;;;;;;1.00;1.00;;;-3.70;1.40;;;-2.90;100.00;96609.78;646397;216;32119;-74
2022/01/15 01:06:10;;;;;;;0.70;0.68;;;-3.80;1.40;;;-2.81;100.00;96612.39;640402;212;31737;-76
2022/01/15 01:08:58;;;;;;;1.00;1.00;;;-3.70;1.40;;;-2.82;100.00;96612.26;647946;216;31666;-74
2022/01/15 01:11:51;;;;;;;0.60;0.60;;;-3.90;1.40;;;-2.99;100.00;96604.28;646012;216;31882;-73
2022/01/15 01:20:10;;;;;;;0.80;0.80;;;-3.90;1.40;;;-3.03;100.00;96597.70;646256;216;31627;-76
2022/01/15 01:25:40;;;;;;;1.00;0.90;;;-4.00;1.40;;;-3.33;100.00;96599.00;646552;216;32016;-74
2022/01/15 01:28:31;;;;;;;1.90;0.85;;;-4.10;1.40;;;-3.37;100.00;96605.53;648183;216;31584;-77
2022/01/15 01:31:16;;;;;;;0.60;0.50;;;-4.20;1.40;;;-3.35;100.00;96604.71;646831;216;31609;-77
2022/01/15 01:39:12;;;;;;;0.40;0.40;;;-4.20;1.40;;;-3.46;100.00;96598.84;619377;225;31926;-77
2022/01/15 01:42:10;;;;;;;0.60;0.60;;;-4.30;1.40;;;-3.53;100.00;96591.27;646407;216;32114;-73
2022/01/15 01:44:42;;;;;;;2.30;0.77;;;-4.30;1.40;;;-3.57;100.00;96589.88;619557;226;31814;-76
2022/01/15 01:47:34;;;;;;;2.00;0.88;;;-4.30;1.40;;;-3.52;100.00;96581.77;647854;212;31568;-77
2022/01/15 01:50:09;;;;;;;0.90;0.70;;;-4.20;1.40;;;-3.53;100.00;96580.78;619292;222;32058;-78
2022/01/15 01:52:53;;;;;;;0.65;0.65;;;-4.20;1.40;;;-3.47;100.00;96574.21;647180;216;31495;-76
2022/01/15 01:55:34;;;;;;;0.62;0.60;;;-4.30;1.40;;;-3.51;100.00;96574.15;619601;222;32126;-76
2022/01/15 01:58:18;;;;;;;1.20;0.55;;;-4.20;1.40;;;-3.63;100.00;96568.29;647231;212;32098;-77
2022/01/15 02:01:06;;;;;;;1.20;0.80;;;-4.30;1.40;;;-3.45;100.00;96568.32;646725;216;31582;-74
2022/01/15 02:04:00;;;;;;;1.40;0.80;;;-4.20;1.40;;;-3.50;100.00;96563.60;648672;216;37338;-76
2022/01/15 02:06:42;;;;;;;0.80;0.80;;;-4.20;1.40;;;-3.46;100.00;96558.89;627482;215;31844;-77
2022/01/15 02:09:30;;;;;;;0.90;0.90;;;-4.10;1.40;;;-3.38;100.00;96560.23;645744;216;31536;-74
2022/01/15 02:12:17;;;;;;;1.70;0.70;;;-4.10;1.40;;;-3.54;100.00;96560.20;647716;216;32109;-77
2022/01/15 02:15:08;;;;;;;1.90;0.70;;;-4.30;1.40;;;-3.48;100.00;96555.34;642590;215;31516;-76
2022/01/15 02:17:50;;;;;;;0.70;0.70;;;-4.10;1.40;;;-3.41;100.00;96546.43;647074;216;31479;-73
2022/01/15 02:23:33;;;;;;;0.50;0.50;;;-3.90;1.40;;;-3.25;100.00;96539.84;647168;216;31863;-74
2022/01/15 02:26:16;;;;;;;1.20;0.90;;;-3.80;1.40;;;-3.31;100.00;96529.58;636993;217;32264;-74
2022/01/15 02:29:03;;;;;;;0.80;0.70;;;-4.00;1.40;;;-3.33;100.00;96530.81;647307;212;31635;-77
2022/01/15 02:31:45;;;;;;;0.90;0.90;;;-3.90;1.40;;;-3.26;100.00;96533.08;631427;221;31750;-77
2022/01/15 02:35:52;;;;;;;1.17;0.60;;;-4.00;1.40;;;-3.41;100.00;96522.01;646454;216;31547;-76
2022/01/15 02:38:34;;;;;;;0.50;0.40;;;-4.10;1.40;;;-3.37;100.00;96521.69;646947;216;31557;-73
2022/01/15 02:41:16;;;;;;;0.60;0.55;;;-4.00;1.40;;;-3.52;100.00;96521.80;646079;216;31550;-74
2022/01/15 02:43:57;;;;;;;1.02;1.02;;;-4.30;1.40;;;-3.56;100.00;96518.75;646267;216;31536;-76
2022/01/15 02:49:29;;;;;;;1.40;1.20;;;-4.30;1.40;;;-3.60;100.00;96516.91;647641;213;31615;-75
2022/01/15 02:52:11;;;;;;;0.60;0.60;;;-4.30;1.40;;;-3.49;100.00;96517.75;646451;212;31524;-75
2022/01/15 02:54:52;;;;;;;3.08;1.10;;;-4.10;1.40;;;-3.53;100.00;96512.00;646342;212;31518;-73
2022/01/15 02:57:37;;;;;;;1.50;0.80;;;-4.20;1.40;;;-3.54;100.00;96508.30;647808;216;31854;-76
2022/01/15 03:00:20;;;;;;;1.00;0.82;;;-4.20;1.40;;;-3.62;100.00;96506.78;645838;212;32039;-75
2022/01/15 03:03:03;;;;;;;1.20;0.77;;;-4.40;1.40;;;-3.58;100.00;96502.58;619807;222;31862;-74
2022/01/15 03:05:45;;;;;;;0.50;0.50;;;-4.20;1.40;;;-3.50;100.00;96506.39;646875;212;31507;-76
2022/01/15 03:08:27;;;;;;;1.80;0.90;;;-4.10;1.40;;;-3.62;100.00;96499.69;645732;212;31556;-74
2022/01/15 03:11:09;;;;;;;0.50;0.50;;;-4.20;1.40;;;-3.54;100.00;96494.82;641908;217;31597;-74
2022/01/15 03:13:50;;;;;;;0.50;0.40;;;-4.40;1.40;;;-3.66;100.00;96496.87;646085;212;43276;-75
2022/01/15 03:16:32;;;;;;;2.20;0.80;;;-4.40;1.40;;;-3.69;100.00;96489.72;646894;216;31491;-76
2022/01/15 03:19:14;;;;;;;0.52;0.40;;;-4.50;1.40;;;-3.69;100.00;96490.93;647141;216;31542;-76
2022/01/15 03:21:56;;;;;;;2.00;1.05;;;-4.50;1.40;;;-3.82;100.00;96484.77;646019;216;31550;-76
2022/01/15 03:24:43;;;;;;;0.70;0.60;;;-4.60;1.40;;;-3.84;100.00;96485.06;648498;216;31891;-77
2022/01/15 03:27:25;;;;;;;1.30;1.00;;;-4.50;1.40;;;-3.76;100.00;96480.26;646950;216;31518;-77
2022/01/15 03:30:10;;;;;;;0.70;0.70;;;-4.30;1.40;;;-3.70;100.00;96479.77;646649;216;31505;-75
2022/01/15 03:32:52;;;;;;;0.40;0.40;;;-4.40;1.40;;;-3.73;100.00;96480.47;646781;212;42274;-73
2022/01/15 03:35:50;;;;;;;0.90;0.60;;;-4.40;1.40;;;-3.76;100.00;96475.14;620498;226;31985;-73
2022/01/15 03:38:32;;;;;;;0.52;0.52;;;-4.40;1.40;;;-3.82;100.00;96474.75;620526;226;32006;-73
2022/01/15 03:41:14;;;;;;;0.50;0.50;;;-4.50;1.40;;;-3.88;100.00;96472.22;645656;216;31500;-75
2022/01/15 03:43:55;;;;;;;0.50;0.50;;;-4.50;1.40;;;-3.86;100.00;96472.27;619713;226;31870;-76
2022/01/15 03:46:37;;;;;;;1.30;1.20;;;-4.40;1.40;;;-3.74;100.00;96470.74;618976;222;31853;-74
2022/01/15 03:49:19;;;;;;;2.20;0.75;;;-4.20;1.40;;;-3.64;100.00;96470.49;648188;216;31541;-76
2022/01/15 03:52:07;;;;;;;0.70;0.40;;;-4.10;1.40;;;-3.54;100.00;96467.77;646694;216;31596;-77
2022/01/15 03:54:51;;;;;;;1.70;0.80;;;-4.00;1.40;;;-3.54;100.00;96469.77;646430;212;31590;-74
2022/01/15 03:57:38;;;;;;;0.70;0.70;;;-4.00;1.40;;;-3.55;100.00;96462.83;647442;212;31575;-77
2022/01/15 04:00:20;;;;;;;0.80;0.80;;;-4.10;1.40;;;-3.59;100.00;96462.87;646997;216;42306;-78
2022/01/15 04:03:03;;;;;;;0.85;0.85;;;-4.20;1.40;;;-3.67;100.00;96465.23;619404;222;31954;-77
2022/01/15 04:05:52;;;;;;;0.60;0.60;;;-4.30;1.40;;;-3.77;100.00;96465.44;645825;212;31551;-75
2022/01/15 04:08:34;;;;;;;1.40;0.70;;;-4.50;1.40;;;-3.84;100.00;96469.78;645827;216;31825;-74
2022/01/15 04:11:16;;;;;;;1.60;0.82;;;-4.60;1.40;;;-3.93;100.00;96467.41;631617;217;31714;-76
2022/01/15 04:14:01;;;;;;;0.60;0.60;;;-4.70;1.40;;;-4.06;100.00;96465.11;647045;216;33196;-76
2022/01/15 04:16:42;;;;;;;2.55;0.60;;;-4.80;1.40;;;-4.14;100.00;96462.47;647562;216;31996;-76
2022/01/15 04:19:28;;;;;;;1.70;0.70;;;-4.80;1.40;;;-4.09;100.00;96467.53;647966;216;31537;-77
2022/01/15 04:22:08;;;;;;;0.70;0.70;;;-4.80;1.40;;;-4.06;100.00;96460.63;646239;212;31514;-77
2022/01/15 04:24:51;;;;;;;1.30;0.80;;;-4.70;1.40;;;-4.15;100.00;96462.02;646262;216;31572;-76
2022/01/15 04:27:33;;;;;;;3.50;1.40;;;-4.80;1.40;;;-4.10;100.00;96456.70;647781;216;31701;-73
2022/01/15 04:30:18;;;;;;;0.50;0.50;;;-4.70;1.40;;;-4.03;100.00;96456.72;645773;216;31655;-76
2022/01/15 04:33:00;;;;;;;2.10;1.00;;;-4.60;1.40;;;-4.09;100.00;96458.09;646035;216;31513;-76
2022/01/15 04:35:51;;;;;;;2.80;0.90;;;-4.80;1.40;;;-4.16;100.00;96452.48;619118;222;31906;-77
2022/01/15 04:38:39;;;;;;;0.77;0.77;;;-4.80;1.40;;;-4.12;100.00;96457.44;620146;226;43069;-77
2022/01/15 04:41:21;;;;;;;0.80;0.50;;;-4.70;1.40;;;-4.00;100.00;96462.21;646672;212;31556;-77
2022/01/15 04:44:08;;;;;;;2.50;1.10;;;-4.70;1.40;;;-4.04;100.00;96458.69;647192;212;31564;-77
2022/01/15 04:46:56;;;;;;;1.20;0.40;;;-4.70;1.40;;;-4.14;100.00;96457.45;648567;216;31495;-78
2022/01/15 04:49:44;;;;;;;0.50;0.50;;;-4.90;1.40;;;-4.16;100.00;96460.20;619523;226;42599;-77
2022/01/15 04:52:30;;;;;;;0.82;0.82;;;-4.90;1.40;;;-4.31;100.00;96463.66;646122;213;31660;-74
2022/01/15 04:55:11;;;;;;;1.20;1.10;;;-5.00;1.40;;;-4.38;100.00;96468.72;647265;212;31547;-76
2022/01/15 04:57:59;;;;;;;0.60;0.50;;;-5.00;1.40;;;-4.37;100.00;96463.37;648315;216;31516;-77
2022/01/15 05:00:40;;;;;;;0.95;0.80;;;-5.00;1.40;;;-4.31;100.00;96470.83;620121;226;31845;-77
2022/01/15 05:03:22;;;;;;;1.50;0.70;;;-5.00;1.40;;;-4.46;100.00;96464.45;646653;212;31519;-77
2022/01/15 05:06:04;;;;;;;3.80;0.90;;;-5.20;1.40;;;-4.51;100.00;96468.75;641519;216;31706;-77
2022/01/15 05:08:46;;;;;;;0.70;0.40;;;-5.30;1.40;;;-4.49;100.00;96460.20;648002;216;31523;-77
2022/01/15 05:11:31;;;;;;;0.50;0.40;;;-5.30;1.40;;;-4.56;100.00;96463.12;647005;212;31570;-77
2022/01/15 05:14:12;;;;;;;1.00;0.88;;;-5.30;1.40;;;-4.61;100.00;96464.17;648546;212;31640;-77
2022/01/15 05:17:01;;;;;;;0.50;0.50;;;-5.30;1.40;;;-4.67;100.00;96467.09;646560;212;31570;-76
2022/01/15 05:19:47;;;;;;;2.10;1.00;;;-5.40;1.40;;;-4.68;100.00;96467.98;647420;213;31539;-77
2022/01/15 05:22:32;;;;;;;2.50;0.90;;;-5.30;1.40;;;-4.70;100.00;96466.68;619438;226;32871;-77
2022/01/15 05:25:13;;;;;;;0.70;0.70;;;-5.40;1.40;;;-4.80;100.00;96467.72;647153;212;31549;-76
2022/01/15 05:27:57;;;;;;;1.40;0.57;;;-5.40;1.40;;;-4.81;100.00;96474.44;647867;212;32076;-74
2022/01/15 05:30:39;;;;;;;0.60;0.52;;;-5.50;1.40;;;-4.87;100.00;96469.19;646308;212;32221;-77
2022/01/15 05:35:57;;;;;;;0.75;0.50;;;-5.40;1.40;;;-4.85;100.00;96471.23;646905;212;31586;-76
2022/01/15 05:38:39;;;;;;;1.30;0.60;;;-5.40;1.40;;;-4.85;100.00;96472.23;647711;212;31486;-74
2022/01/15 05:41:20;;;;;;;0.80;0.80;;;-5.50;1.40;;;-4.87;100.00;96467.76;646766;216;31641;-76
2022/01/15 05:44:05;;;;;;;1.30;1.05;;;-5.50;1.40;;;-4.90;100.00;96466.45;646495;216;31499;-76
2022/01/15 05:46:48;;;;;;;2.58;0.90;;;-5.50;1.40;;;-4.85;100.00;96469.17;646655;212;31646;-74
2022/01/15 05:49:31;;;;;;;1.05;0.45;;;-5.50;1.40;;;-4.86;100.00;96465.62;618940;222;31861;-77
2022/01/15 05:52:12;;;;;;;0.50;0.50;;;-5.50;1.40;;;-4.93;100.00;96466.20;646729;216;31515;-77
2022/01/15 05:54:54;;;;;;;0.70;0.60;;;-5.60;1.40;;;-4.95;100.00;96461.39;648714;212;31575;-78
2022/01/15 05:57:42;;;;;;;0.70;0.70;;;-5.60;1.40;;;-4.88;100.00;96466.38;645712;216;31699;-76
2022/01/15 06:00:27;;;;;;;1.80;1.50;;;-5.60;1.40;;;-4.87;100.00;96468.94;645743;212;31577;-76
2022/01/15 06:03:09;;;;;;;0.90;0.90;;;-5.60;1.40;;;-4.96;100.00;96471.94;646020;212;31946;-74
2022/01/15 06:05:56;;;;;;;0.90;0.70;;;-5.60;1.40;;;-4.97;100.00;96476.72;613686;226;42717;-76
2022/01/15 06:08:44;;;;;;;1.20;0.57;;;-5.60;1.40;;;-4.96;100.00;96474.47;646613;212;31548;-76
2022/01/15 06:11:27;;;;;;;0.60;0.60;;;-5.60;1.40;;;-4.97;100.00;96474.77;646421;212;31600;-76
2022/01/15 06:14:08;;;;;;;1.00;0.80;;;-5.70;1.40;;;-4.99;100.00;96479.67;646044;212;42231;-76
2022/01/15 06:16:49;;;;;;;0.60;0.60;;;-5.60;1.40;;;-4.96;100.00;96477.42;619882;222;42473;-76
2022/01/15 06:19:31;;;;;;;0.90;0.90;;;-5.50;1.40;;;-4.96;100.00;96479.61;647667;212;31515;-77
2022/01/15 06:22:12;;;;;;;1.20;0.50;;;-5.60;1.40;;;-4.98;100.00;96479.33;646252;212;31531;-76
2022/01/15 06:25:02;;;;;;;0.98;0.90;;;-5.60;1.40;;;-4.96;100.00;96478.44;646249;216;42123;-77
2022/01/15 06:27:44;;;;;;;1.00;0.62;;;-5.60;1.40;;;-4.95;100.00;96476.30;646856;216;32117;-76
2022/01/15 06:30:25;;;;;;;0.60;0.60;;;-5.60;1.40;;;-4.85;100.00;96476.50;646132;216;42783;-76
2022/01/15 06:35:51;;;;;;;0.90;0.77;;;-5.60;1.40;;;-4.82;100.00;96476.07;646056;212;31551;-75
2022/01/15 06:41:07;;;;;;;1.10;0.80;;;-5.50;1.40;;;-4.75;100.00;96482.23;647303;216;31779;-75
2022/01/15 06:43:55;;;;;;;1.40;1.30;;;-5.40;1.40;;;-4.67;100.00;96484.14;647747;216;31826;-77
2022/01/15 06:46:37;;;;;;;0.82;0.82;;;-5.30;1.40;;;-4.33;100.00;96482.72;647886;216;31597;-77
2022/01/15 06:49:25;;;;;;;0.90;0.90;;;-5.00;1.40;;;-4.11;100.00;96491.28;646641;212;42441;-76
2022/01/15 06:52:07;;;;;;;0.88;0.80;;;-4.80;1.40;;;-3.93;100.00;96486.80;647163;212;42199;-75
2022/01/15 06:54:48;;;;;;;2.90;0.70;;;-4.70;1.40;;;-3.76;100.00;96478.77;645908;212;42250;-77
2022/01/15 06:57:30;;;;;;;1.50;1.30;;;-4.60;1.40;;;-3.68;100.00;96492.63;646917;212;42270;-76
2022/01/15 07:00:13;;;;;;;5.60;1.50;;;-4.50;1.40;;;-3.69;100.00;96484.09;618267;222;42597;-73
2022/01/15 07:03:02;;;;;;;0.80;0.80;;;-4.50;1.40;;;-3.54;100.00;96488.78;646650;216;31835;-77
2022/01/15 07:05:45;;;;;;;0.80;0.80;;;-4.50;1.40;;;-3.56;100.00;96486.03;646174;216;31900;-75
2022/01/15 07:08:26;;;;;;;1.10;1.00;;;-4.50;1.40;;;-3.39;100.00;96493.43;619974;222;32046;-76
2022/01/15 07:11:08;;;;;;;1.00;1.00;;;-4.40;1.40;;;-3.26;100.00;96497.61;646209;212;31514;-76
2022/01/15 07:13:52;;;;;;;1.60;1.15;;;-4.40;1.40;;;-3.18;100.00;96495.08;647612;216;31584;-77
2022/01/15 07:16:40;;;;;;;2.40;1.20;;;-4.30;1.40;;;-3.29;100.00;96495.11;646010;212;31664;-77
2022/01/15 07:19:23;;;;;;;1.27;0.95;;;-4.30;1.40;;;-3.18;100.00;96501.92;647297;212;31596;-77
2022/01/15 07:22:06;;;;;;;0.90;0.80;;;-4.20;1.40;;;-3.19;100.00;96503.48;646551;216;31617;-77
2022/01/15 07:24:50;;;;;;;2.40;1.45;;;-4.10;1.40;;;-3.10;100.00;96503.17;646779;216;42333;-77
2022/01/15 07:27:37;;;;;;;6.70;1.58;;;-4.10;1.40;;;-2.81;100.00;96499.19;647587;212;31651;-77
2022/01/15 07:30:20;;;;;;;1.55;1.33;;;-4.00;1.40;;;-2.83;100.00;96495.48;648208;216;31561;-79
2022/01/15 07:35:52;;;;;;;1.27;1.20;;;-3.80;1.40;;;-2.45;100.00;96487.87;619562;226;31926;-76
2022/01/15 07:38:33;;;;;;;2.35;2.15;;;-3.70;1.40;;;-2.27;100.00;96491.42;647521;216;31671;-76
2022/01/15 07:41:15;;;;;;;1.70;1.40;;;-3.60;1.40;;;-2.46;100.00;96491.28;645453;216;31576;-75
2022/01/15 07:43:57;;;;;;;4.90;1.20;;;-3.60;1.40;;;-2.22;100.00;96495.45;646144;216;31622;-77
2022/01/15 07:46:38;;;;;;;2.80;2.12;;;-3.50;1.40;;;-2.08;100.00;96485.27;647408;216;31656;-75
2022/01/15 07:49:20;;;;;;;1.80;1.70;;;-3.40;1.40;;;-2.05;100.00;96489.23;646691;216;31574;-74
2022/01/15 07:52:02;;;;;;;2.15;1.20;;;-3.20;1.40;;;-1.88;100.00;96488.26;619944;225;31944;-75
2022/01/15 07:54:44;;;;;;;3.47;2.05;;;-3.10;1.40;;;-1.74;100.00;96483.45;645311;212;31604;-74
2022/01/15 07:57:26;;;;;;;2.53;2.33;;;-3.10;1.40;;;-1.58;100.00;96487.43;647411;212;31527;-77
2022/01/15 08:00:09;;;;;;;3.67;3.37;;;-2.90;1.40;;;-1.62;100.00;96489.80;647064;212;31545;-75
2022/01/15 08:02:57;;;;;;;3.17;2.97;;;-2.90;1.40;;;-1.58;100.00;96490.81;620944;222;32502;-79
2022/01/15 08:05:44;;;;;;;3.20;1.83;;;-2.80;1.40;;;-1.44;100.00;96485.86;646923;216;31553;-77
2022/01/15 08:08:26;;;;;;;1.90;1.45;;;-2.70;1.40;;;-1.10;100.00;96488.25;645940;216;32114;-77
2022/01/15 08:11:08;;;;;;;1.52;1.42;;;-2.50;1.40;;;-0.95;100.00;96487.83;646183;212;32149;-74
2022/01/15 08:13:49;;;;;;;2.97;1.70;;;-2.50;1.40;;;-1.32;100.00;96482.52;646437;216;31564;-77
2022/01/15 08:16:31;;;;;;;1.50;1.17;;;-2.70;1.40;;;-1.37;100.00;96478.41;647071;216;31549;-76
2022/01/15 08:19:16;;;;;;;2.20;1.87;;;-2.60;1.40;;;-1.62;100.00;96478.16;619526;222;32055;-76
2022/01/15 08:21:58;;;;;;;1.25;1.15;;;-2.60;1.40;;;-1.39;100.00;96481.03;647251;216;42200;-76
2022/01/15 08:24:50;;;;;;;2.00;1.50;;;-2.50;1.40;;;-1.25;100.00;96472.58;648093;212;31514;-79
2022/01/15 08:27:32;;;;;;;3.60;2.40;;;-2.40;1.40;;;-0.76;100.00;96467.73;646726;216;31553;-76
2022/01/15 08:30:14;;;;;;;1.30;1.20;;;-2.10;1.40;;;-0.33;100.00;96469.26;618914;226;31938;-75
2022/01/15 08:32:56;;;;;;;3.67;2.25;;;-1.90;1.40;;;-1.07;100.00;96469.19;618630;226;32391;-77
2022/01/15 08:35:52;;;;;;;2.10;1.70;;;-2.30;1.40;;;-1.78;100.00;96460.36;619002;222;31943;-77
2022/01/15 08:38:34;;;;;;;1.25;1.15;;;-2.50;1.40;;;-1.36;100.00;96459.08;646176;216;31603;-76
2022/01/15 08:41:48;;;;;;;1.52;1.10;;;-2.30;1.40;;;-1.25;100.00;96451.36;618376;222;32008;-75
2022/01/15 08:44:31;;;;;;;2.90;2.42;;;-2.20;1.40;;;-1.50;100.00;96446.53;646394;212;31654;-76
2022/01/15 08:47:12;;;;;;;1.12;1.02;;;-2.50;1.40;;;-1.85;100.00;96443.14;646317;216;31569;-74
2022/01/15 08:49:55;;;;;;;0.88;0.88;;;-2.50;1.40;;;-2.25;100.00;96433.63;617841;225;31900;-76
2022/01/15 08:52:36;;;;;;;2.60;2.40;;;-2.70;1.40;;;-2.03;100.00;96434.47;646125;212;31597;-74
2022/01/15 08:55:18;;;;;;;2.60;1.90;;;-2.50;1.40;;;-1.67;100.00;96426.58;645540;216;31580;-77
2022/01/15 08:57:59;;;;;;;3.58;1.60;;;-2.30;1.40;;;-1.74;100.00;96426.48;619076;225;31846;-77
2022/01/15 09:00:41;;;;;;;1.00;1.00;;;-2.30;1.40;;;-1.55;100.00;96421.65;646720;212;31604;-77
2022/01/15 09:03:23;;;;;;;3.90;1.83;;;-2.20;1.40;;;-1.58;100.00;96420.28;646558;216;31495;-77
2022/01/15 09:06:04;;;;;;;1.50;1.40;;;-2.30;1.40;;;-1.69;100.00;96417.05;643808;216;31744;-77
2022/01/15 09:08:47;;;;;;;3.47;2.37;;;-2.30;1.40;;;-1.07;100.00;96424.01;645688;216;32161;-76
2022/01/15 09:11:29;;;;;;;2.53;2.33;;;-1.90;1.40;;;-0.16;100.00;96424.45;646568;216;31593;-77
2022/01/15 09:14:11;;;;;;;2.87;1.77;;;-1.30;1.40;;;-0.55;100.00;96427.16;646788;212;31528;-75
2022/01/15 09:16:52;;;;;;;2.80;2.40;;;-1.60;1.40;;;-0.28;100.00;96430.97;646986;216;31600;-75
2022/01/15 09:19:37;;;;;;;5.10;3.55;;;-1.40;1.40;;;0.35;100.00;96428.15;645510;212;44074;-75
2022/01/15 09:22:19;;;;;;;3.50;1.92;;;-0.90;1.40;;;0.83;100.00;96430.08;620306;226;42508;-75
2022/01/15 09:25:01;;;;;;;3.42;2.90;;;-0.80;1.40;;;0.81;100.00;96428.40;646285;216;32583;-77
2022/01/15 09:30:30;;;;;;;4.12;2.87;;;-0.80;1.40;;;1.23;100.00;96424.94;616317;226;31898;-75
2022/01/15 09:35:51;;;;;;;2.87;1.83;;;-0.70;1.40;;;0.16;100.00;96427.13;646123;212;31891;-75
2022/01/15 09:38:32;;;;;;;2.65;2.30;;;-1.00;1.40;;;-0.09;100.00;96422.23;647067;216;31590;-74
2022/01/15 09:41:14;;;;;;;4.18;3.87;;;-1.10;1.40;;;0.17;100.00;96416.88;645938;216;31618;-75
2022/01/15 09:43:56;;;;;;;3.20;2.90;;;-0.90;1.40;;;0.16;100.00;96418.87;646429;212;31598;-74
2022/01/15 09:46:38;;;;;;;3.30;2.45;;;-1.00;1.40;;;1.00;100.00;96412.30;647009;212;31586;-75
2022/01/15 09:49:19;;;;;;;3.00;1.80;;;-0.50;1.40;;;0.02;100.00;96410.60;646705;216;31589;-78
2022/01/15 09:52:01;;;;;;;2.53;2.33;;;-1.00;1.40;;;0.38;100.00;96417.23;645914;212;31597;-77
2022/01/15 09:54:43;;;;;;;2.53;1.90;;;-0.80;1.40;;;1.17;100.00;96415.10;647099;212;32528;-75
2022/01/15 09:57:24;;;;;;;5.82;3.20;;;-0.40;1.40;;;1.67;100.00;96406.17;646419;212;31985;-75
2022/01/15 10:00:08;;;;;;;4.00;3.60;;;-0.10;1.40;;;2.13;100.00;96404.53;646778;212;31624;-77
2022/01/15 10:02:53;;;;;;;4.47;3.75;;;0.00;1.40;;;2.23;100.00;96403.64;647984;212;31584;-74
2022/01/15 10:05:36;;;;;;;3.37;3.00;;;0.20;1.40;;;2.36;100.00;96405.24;645654;212;32176;-76
2022/01/15 10:08:19;;;;;;;2.92;2.72;;;0.30;1.40;;;2.23;100.00;96404.83;618976;222;32512;-75
2022/01/15 10:11:05;;;;;;;3.03;2.78;;;0.20;1.40;;;1.94;100.00;96402.55;648000;216;32183;-74
2022/01/15 10:13:44;;;;;;;1.73;1.62;;;0.00;1.40;;;2.01;100.00;96402.73;645706;216;32106;-76
2022/01/15 10:16:26;;;;;;;2.65;2.30;;;0.20;1.40;;;2.56;100.00;96403.03;647448;212;31721;-77
2022/01/15 10:19:07;;;;;;;3.42;2.58;;;0.40;1.40;;;1.99;100.00;96398.66;646265;216;31831;-77
2022/01/15 10:22:06;;;;;;;3.72;3.42;;;0.10;1.40;;;2.38;100.00;96399.19;645507;216;31583;-75
2022/01/15 10:24:56;;;;;;;5.03;2.55;;;0.20;1.40;;;2.24;100.00;96399.38;646704;212;32784;-76
2022/01/15 10:27:39;;;;;;;4.87;3.17;;;0.20;1.40;;;2.39;100.00;96395.79;647749;216;31562;-77
2022/01/15 10:30:22;;;;;;;4.05;3.03;;;0.30;1.40;;;2.66;100.00;96391.00;619596;222;32193;-75
2022/01/15 10:35:54;;;;;;;4.53;3.78;;;0.40;1.40;;;2.39;100.00;96384.03;645827;212;31908;-74
2022/01/15 10:38:36;;;;;;;2.55;2.33;;;0.30;1.40;;;2.47;100.00;96381.40;647045;216;31611;-75
2022/01/15 10:41:32;;;;;;;3.80;2.20;;;0.40;1.40;;;2.64;100.00;96377.03;647122;216;31606;-75
2022/01/15 10:47:14;;;;;;;2.60;2.40;;;0.70;1.40;;;3.16;100.00;96365.52;647765;212;31621;-77
2022/01/15 10:49:57;;;;;;;2.80;2.47;;;0.80;1.40;;;2.51;100.00;96365.67;647194;216;31689;-75
2022/01/15 10:52:42;;;;;;;3.70;2.20;;;0.80;1.40;;;3.02;100.00;96367.08;619555;226;32662;-77
2022/01/15 10:55:25;;;;;;;3.97;3.08;;;0.90;1.40;;;3.28;100.00;96361.78;645931;212;31992;-75
2022/01/15 10:58:07;;;;;;;3.90;3.60;;;0.90;1.40;;;3.09;100.00;96356.96;645935;212;31653;-75
2022/01/15 11:00:51;;;;;;;4.62;3.30;;;1.00;1.40;;;3.19;100.00;96357.42;619256;226;31880;-76
2022/01/15 11:03:37;;;;;;;3.30;2.62;;;1.00;1.40;;;2.98;100.00;96355.38;646754;212;31565;-77
2022/01/15 11:06:20;;;;;;;3.05;2.75;;;1.00;1.40;;;2.74;100.00;96352.64;642290;216;31758;-75
2022/01/15 11:09:02;;;;;;;3.60;3.30;;;0.90;1.40;;;2.78;100.00;96349.84;645938;216;31839;-76
2022/01/15 11:11:56;;;;;;;3.30;2.95;;;0.90;1.40;;;3.15;100.00;96342.61;646467;216;31617;-78
2022/01/15 11:14:39;;;;;;;2.75;2.55;;;0.90;1.40;;;3.43;100.00;96336.55;646946;216;31717;-79
2022/01/15 11:17:21;;;;;;;3.70;3.20;;;0.90;1.40;;;3.35;100.00;96340.09;619360;226;32165;-79
2022/01/15 11:20:12;;;;;;;6.70;4.32;;;0.90;1.40;;;3.26;100.00;96347.70;646256;216;31631;-77
2022/01/15 11:23:01;;;;;;;3.70;3.37;;;1.00;1.40;;;2.52;100.00;96348.88;648220;216;42213;-79
2022/01/15 11:25:50;;;;;;;4.12;3.45;;;0.70;1.40;;;2.35;100.00;96344.20;645915;216;32137;-75
2022/01/15 11:28:38;;;;;;;3.70;3.20;;;0.40;1.40;;;2.88;100.00;96336.96;647268;216;31554;-80
2022/01/15 11:31:27;;;;;;;2.97;2.75;;;0.50;1.40;;;2.94;100.00;96333.84;645225;216;31673;-77
2022/01/15 11:35:51;;;;;;;2.40;2.20;;;0.90;1.40;;;2.90;100.00;96321.16;645936;216;32436;-75
2022/01/15 11:38:46;;;;;;;3.83;3.12;;;0.90;1.40;;;3.09;100.00;96322.88;646484;216;31552;-75
2022/01/15 11:41:43;;;;;;;4.80;4.30;;;0.90;1.40;;;2.41;100.00;96325.15;647213;212;31575;-75
2022/01/15 11:44:46;;;;;;;4.62;3.20;;;0.60;1.40;;;2.32;100.00;96319.53;620268;226;32558;-77
2022/01/15 11:47:28;;;;;;;4.95;3.80;;;0.70;1.40;;;2.67;100.00;96315.63;646946;212;31571;-78
2022/01/15 11:50:20;;;;;;;3.85;3.20;;;0.90;1.40;;;3.09;100.00;96313.98;641707;216;31596;-75
2022/01/15 11:53:00;;;;;;;2.12;2.03;;;0.80;1.40;;;2.88;100.00;96320.09;645792;216;31714;-77
2022/01/15 11:55:43;;;;;;;4.93;4.28;;;0.80;1.40;;;2.66;100.00;96320.91;645313;216;31591;-74
2022/01/15 11:58:30;;;;;;;4.15;3.37;;;0.80;1.40;;;2.93;100.00;96314.91;647988;216;31605;-78
2022/01/15 12:01:37;;;;;;;3.50;2.90;;;0.70;1.40;;;2.92;100.00;96322.55;618084;222;32311;-77
2022/01/15 12:07:17;;;;;;;3.67;3.37;;;0.70;1.40;;;1.90;100.00;96310.67;639890;216;32000;-77
2022/01/15 12:10:01;;;;;;;3.65;3.08;;;0.50;1.40;;;2.42;100.00;96304.19;647064;213;31584;-79
2022/01/15 12:12:50;;;;;;;6.60;3.50;;;0.70;1.40;;;2.92;100.00;96301.98;646907;212;31701;-77
2022/01/15 12:15:34;;;;;;;5.55;3.58;;;0.70;1.40;;;2.88;100.00;96297.62;646846;212;31596;-77
2022/01/15 12:18:18;;;;;;;2.90;2.60;;;0.80;1.40;;;2.95;100.00;96302.14;646409;216;31584;-74
2022/01/15 12:21:02;;;;;;;3.35;3.15;;;0.80;1.40;;;2.76;100.00;96290.58;647551;216;31757;-75
2022/01/15 12:23:44;;;;;;;2.78;1.87;;;0.70;1.40;;;2.95;100.00;96295.50;619648;222;31934;-77